Time;durP1;ratioP1;P1;durP2;ratioP2;P2;SDS_P1;SDS_P2;PMS_P1;PMS_P2;Temp;Humidity;BMP_temperature;BMP_pressure;BME280_temperature;BME280_humidity;BME280_pressure;Samples;Min_cycle;Max_cycle;Signal;HPM_P1;HPM_P2
2022/07/09 17:19:30;;;;;;;2.73;2.50;;;24.00;69.90;;;;;;5061517;27;20620;-88
2022/07/09 17:21:57;;;;;;;3.37;2.40;;;;;;;;;;5045325;28;20462;-91
2022/07/09 17:24:24;;;;;;;2.67;2.47;;;;;;;;;;5048730;28;20455;-88
2022/07/09 17:26:52;;;;;;;2.57;2.30;;;;;;;;;;5050169;28;20458;-88
2022/07/09 17:29:19;;;;;;;2.70;2.50;;;;;;;;;;5050102;28;20462;-86
2022/07/09 17:31:46;;;;;;;2.20;1.97;;;;;;;;;;5049941;28;20490;-86
2022/07/09 17:34:13;;;;;;;3.77;2.40;;;;;;;;;;5044653;28;20475;-88
2022/07/09 17:36:41;;;;;;;3.03;2.23;;;23.60;69.20;;;;;;5044456;28;20443;-90
2022/07/09 17:39:11;;;;;;;2.60;2.37;;;;;;;;;;5030506;28;20513;-89
2022/07/09 17:41:39;;;;;;;2.67;2.47;;;;;;;;;;5038925;28;20458;-86
2022/07/09 17:44:06;;;;;;;4.70;2.83;;;;;;;;;;5042235;28;20444;-88
2022/07/09 17:46:33;;;;;;;5.50;2.23;;;;;;;;;;5030048;28;20451;-88
2022/07/09 17:49:01;;;;;;;2.63;2.43;;;;;;;;;;5030090;28;20464;-89
2022/07/09 17:51:28;;;;;;;3.10;2.80;;;;;;;;;;5030546;28;20452;-91
2022/07/09 17:53:56;;;;;;;2.67;2.40;;;23.10;72.20;;;;;;5034061;28;20452;-88
2022/07/09 17:56:23;;;;;;;3.70;2.40;;;;;;;;;;5048926;28;20973;-86
2022/07/09 17:58:51;;;;;;;3.23;2.97;;;;;;;;;;5046595;28;20558;-85
2022/07/09 18:01:18;;;;;;;3.70;2.57;;;;;;;;;;5037038;28;20509;-86
2022/07/09 18:03:45;;;;;;;4.60;2.57;;;;;;;;;;5044388;28;20447;-87
2022/07/09 18:06:15;;;;;;;4.23;2.70;;;;;;;;;;5040204;28;20830;-87
2022/07/09 18:08:42;;;;;;;4.00;2.80;;;;;;;;;;5028530;28;20451;-88
2022/07/09 18:11:10;;;;;;;3.73;2.60;;;23.20;72.00;;;;;;5029477;28;20804;-90
2022/07/09 18:13:38;;;;;;;4.37;2.60;;;;;;;;;;5029447;28;20444;-89
2022/07/09 18:16:05;;;;;;;3.00;2.70;;;;;;;;;;5029435;28;20492;-88
2022/07/09 18:18:32;;;;;;;3.63;3.30;;;;;;;;;;5044193;28;20505;-87
2022/07/09 18:21:00;;;;;;;2.90;2.60;;;;;;;;;;5050027;28;20454;-87
2022/07/09 18:23:27;;;;;;;2.90;2.70;;;;;;;;;;5048226;28;20815;-87
2022/07/09 18:25:54;;;;;;;3.80;2.67;;;;;;;;;;5049165;28;20453;-86
2022/07/09 18:28:22;;;;;;;4.17;2.87;;;22.60;79.60;;;;;;5038072;28;20989;-87
2022/07/09 18:30:50;;;;;;;4.17;2.80;;;;;;;;;;5016202;28;20814;-87
2022/07/09 18:33:17;;;;;;;3.00;2.80;;;;;;;;;;5024808;28;20833;-87
2022/07/09 18:35:44;;;;;;;2.70;2.50;;;;;;;;;;5034135;28;20479;-89
2022/07/09 18:38:11;;;;;;;3.00;2.70;;;;;;;;;;5030115;28;21288;-88
2022/07/09 18:40:39;;;;;;;2.83;2.63;;;22.30;84.10;;;;;;5015899;28;20452;-87
2022/07/09 18:43:06;;;;;;;2.80;2.60;;;;;;;;;;5016106;28;20494;-89
2022/07/09 18:45:34;;;;;;;3.20;2.90;;;22.10;87.50;;;;;;5032811;28;20462;-89
2022/07/09 18:48:04;;;;;;;5.50;3.60;;;;;;;;;;5035706;28;20450;-88
2022/07/09 18:50:31;;;;;;;3.57;2.93;;;;;;;;;;5035725;28;20448;-87
2022/07/09 18:52:58;;;;;;;2.83;2.53;;;;;;;;;;5034396;28;20503;-87
2022/07/09 18:55:25;;;;;;;3.30;2.83;;;;;;;;;;5035453;28;20478;-86
2022/07/09 18:57:53;;;;;;;5.20;3.33;;;;;;;;;;5035088;28;20566;-87
2022/07/09 19:00:20;;;;;;;3.23;2.87;;;;;;;;;;5036199;28;20455;-86
2022/07/09 19:02:48;;;;;;;4.03;3.00;;;;;;;;;;5035050;28;20455;-86
2022/07/09 19:05:15;;;;;;;3.57;3.20;;;;;;;;;;5035065;28;20946;-87
2022/07/09 19:07:42;;;;;;;3.33;2.70;;;;;;;;;;5035262;28;20470;-86
2022/07/09 19:10:10;;;;;;;4.77;3.47;;;;;;;;;;5034074;28;20451;-86
2022/07/09 19:12:37;;;;;;;3.87;3.00;;;;;;;;;;5034988;28;20798;-86
2022/07/09 19:15:05;;;;;;;4.23;3.60;;;;;;;;;;5034300;28;20454;-86
2022/07/09 19:17:33;;;;;;;5.23;3.60;;;20.90;93.10;;;;;;5034690;28;20478;-87
2022/07/09 19:20:01;;;;;;;8.13;3.63;;;20.90;94.20;;;;;;5034691;28;20886;-86
2022/07/09 19:22:28;;;;;;;5.47;3.60;;;;;;;;;;5032430;28;20451;-87
2022/07/09 19:24:55;;;;;;;3.20;2.53;;;;;;;;;;5031170;28;20554;-86
2022/07/09 19:27:22;;;;;;;3.30;2.90;;;;;;;;;;5032432;28;20483;-88
2022/07/09 19:29:50;;;;;;;4.30;3.30;;;;;;;;;;5028910;28;20459;-85
2022/07/09 19:35:14;;;;;;;3.60;3.30;;;20.60;97.20;;;;;;4993071;28;20563;-85
2022/07/09 19:37:41;;;;;;;3.80;3.40;;;;;;;;;;5020049;28;20807;-87
2022/07/09 19:40:09;;;;;;;4.77;3.70;;;20.60;96.90;;;;;;5031572;28;20502;-86
2022/07/09 19:42:36;;;;;;;4.70;4.30;;;;;;;;;;5033602;28;20455;-87
2022/07/09 19:45:04;;;;;;;4.13;3.70;;;;;;;;;;5034533;28;20463;-88
2022/07/09 19:47:31;;;;;;;5.60;3.83;;;;;;;;;;5033984;28;20934;-87
2022/07/09 19:49:58;;;;;;;7.63;4.63;;;;;;;;;;5034116;28;20455;-87
2022/07/09 19:52:27;;;;;;;5.53;4.60;;;20.50;98.50;;;;;;5034167;28;20458;-87
2022/07/09 19:54:54;;;;;;;7.83;4.20;;;;;;;;;;5032861;28;20542;-87
2022/07/09 19:57:21;;;;;;;4.23;3.80;;;;;;;;;;5033776;28;20443;-87
2022/07/09 19:59:48;;;;;;;5.03;3.30;;;;;;;;;;5033885;28;20487;-86
2022/07/09 20:02:15;;;;;;;6.30;3.40;;;;;;;;;;5033080;28;20931;-87
2022/07/09 20:04:43;;;;;;;4.07;3.63;;;;;;;;;;5033833;28;20452;-85
2022/07/09 20:07:10;;;;;;;4.13;3.30;;;;;;;;;;5033892;28;21073;-86
2022/07/09 20:09:38;;;;;;;4.93;3.27;;;20.30;99.30;;;;;;5032706;28;20458;-87
2022/07/09 20:12:06;;;;;;;4.10;3.53;;;;;;;;;;5029722;28;20450;-88
2022/07/09 20:14:33;;;;;;;4.27;3.87;;;;;;;;;;5033747;28;20451;-85
2022/07/09 20:17:00;;;;;;;4.77;3.70;;;;;;;;;;5033221;28;20933;-87
2022/07/09 20:19:27;;;;;;;4.47;3.67;;;;;;;;;;5033184;28;20486;-86
2022/07/09 20:21:54;;;;;;;7.63;4.50;;;;;;;;;;5024060;28;20428;-87
2022/07/09 20:24:21;;;;;;;3.00;2.60;;;;;;;;;;5023231;28;20807;-88
2022/07/09 20:26:49;;;;;;;3.70;3.40;;;20.30;99.90;;;;;;5023945;28;20441;-85
2022/07/09 20:29:16;;;;;;;6.50;2.90;;;;;;;;;;5024747;28;20955;-87
2022/07/09 20:31:43;;;;;;;3.60;3.30;;;;;;;;;;5020208;28;20448;-84
2022/07/09 20:34:10;;;;;;;3.60;3.30;;;;;;;;;;5013935;28;20456;-84
2022/07/09 20:36:37;;;;;;;4.23;3.13;;;;;;;;;;5013733;28;20483;-86
2022/07/09 20:39:04;;;;;;;6.93;3.60;;;;;;;;;;5012421;28;20496;-85
2022/07/09 20:41:32;;;;;;;3.77;3.30;;;;;;;;;;5014439;28;20495;-86
2022/07/09 20:44:00;;;;;;;11.03;3.90;;;18.80;99.90;;;;;;5013827;28;20440;-84
2022/07/09 20:46:27;;;;;;;3.43;3.13;;;;;;;;;;5012977;28;20514;-86
2022/07/09 20:48:54;;;;;;;3.43;3.13;;;;;;;;;;5013534;28;20539;-85
2022/07/09 20:51:22;;;;;;;3.27;2.97;;;;;;;;;;5013151;28;20444;-88
2022/07/09 20:53:49;;;;;;;3.50;3.20;;;;;;;;;;5011447;28;20498;-85
2022/07/09 20:56:16;;;;;;;4.20;3.73;;;;;;;;;;5012984;28;20522;-86
2022/07/09 20:58:43;;;;;;;3.57;3.27;;;;;;;;;;5013440;28;20484;-85
2022/07/09 21:01:11;;;;;;;3.50;3.20;;;18.00;99.90;;;;;;5013163;28;20955;-85
2022/07/09 21:03:38;;;;;;;3.47;3.17;;;;;;;;;;5013210;28;20982;-86
2022/07/09 21:06:05;;;;;;;4.03;3.70;;;;;;;;;;5013287;28;20444;-85
2022/07/09 21:08:32;;;;;;;3.70;3.40;;;;;;;;;;5012193;28;20452;-87
2022/07/09 21:11:00;;;;;;;3.60;3.30;;;;;;;;;;5013119;28;20445;-85
2022/07/09 21:13:28;;;;;;;3.93;2.87;;;;;;;;;;5010900;28;20970;-86
2022/07/09 21:15:55;;;;;;;3.83;3.00;;;;;;;;;;5013230;28;20456;-86
2022/07/09 21:21:07;;;;;;;4.10;3.70;;;;;;;;;;5013195;28;20444;-86
2022/07/09 21:23:34;;;;;;;3.60;3.30;;;;;;;;;;5011576;28;20795;-86
2022/07/09 21:26:01;;;;;;;4.73;3.60;;;;;;;;;;5012986;28;20448;-85
2022/07/09 21:28:28;;;;;;;3.40;3.10;;;;;;;;;;5013080;28;20460;-86
2022/07/09 21:30:56;;;;;;;4.53;3.10;;;;;;;;;;5013079;28;20936;-85
2022/07/09 21:33:24;;;;;;;3.80;3.50;;;17.90;99.90;;;;;;5012988;28;20483;-85
2022/07/09 21:35:51;;;;;;;4.30;3.90;;;;;;;;;;5013544;28;20448;-87
2022/07/09 21:38:18;;;;;;;5.20;3.20;;;;;;;;;;5012268;28;20593;-85
2022/07/09 21:40:45;;;;;;;3.90;3.60;;;;;;;;;;5013018;28;20504;-85
2022/07/09 21:43:12;;;;;;;4.03;3.63;;;;;;;;;;5013217;28;20832;-85
2022/07/09 21:45:39;;;;;;;4.53;4.10;;;;;;;;;;5013130;28;20475;-85
2022/07/09 21:48:06;;;;;;;4.83;3.87;;;;;;;;;;5012845;28;20455;-86
2022/07/09 21:50:35;;;;;;;4.60;3.30;;;;;;;;;;5012958;28;20928;-86
2022/07/09 21:53:02;;;;;;;4.10;3.70;;;;;;;;;;5011786;28;20452;-86
2022/07/09 21:55:29;;;;;;;4.20;3.80;;;;;;;;;;5013074;28;20510;-86
2022/07/09 21:57:56;;;;;;;3.87;3.57;;;;;;;;;;5012862;28;20456;-86
2022/07/09 22:00:42;;;;;;;4.13;3.77;;;17.50;99.90;;;;;;5012869;28;20589;-85
2022/07/09 22:03:09;;;;;;;4.90;4.13;;;;;;;;;;5012158;28;20506;-85
2022/07/09 22:05:37;;;;;;;4.53;3.93;;;17.40;99.90;;;;;;5016063;28;20466;-85
2022/07/09 22:08:04;;;;;;;4.40;4.00;;;;;;;;;;5015368;28;20800;-85
2022/07/09 22:10:31;;;;;;;4.00;3.70;;;;;;;;;;5016527;28;20451;-86
2022/07/09 22:12:59;;;;;;;4.37;3.97;;;;;;;;;;5014329;28;20474;-85
2022/07/09 22:15:26;;;;;;;4.30;4.00;;;;;;;;;;5016514;28;20808;-86
2022/07/09 22:17:55;;;;;;;4.20;3.90;;;;;;;;;;5015858;28;20482;-85
2022/07/09 22:20:22;;;;;;;6.83;3.97;;;;;;;;;;5015902;28;20495;-86
2022/07/09 22:22:51;;;;;;;4.60;4.10;;;17.10;99.90;;;;;;5016473;28;20456;-85
2022/07/09 22:25:18;;;;;;;4.37;4.07;;;;;;;;;;5015189;28;20460;-85
2022/07/09 22:27:45;;;;;;;4.73;4.20;;;;;;;;;;5017799;28;20958;-85
2022/07/09 22:30:14;;;;;;;4.83;4.20;;;16.90;99.90;;;;;;5017274;28;20947;-86
2022/07/09 22:32:41;;;;;;;5.07;4.67;;;;;;;;;;5015864;28;20460;-86
2022/07/09 22:35:09;;;;;;;5.80;4.77;;;;;;;;;;5016165;28;20452;-85
2022/07/09 22:37:36;;;;;;;4.50;4.07;;;;;;;;;;5016003;28;20810;-85
2022/07/09 22:40:05;;;;;;;5.80;4.10;;;16.70;99.90;;;;;;5014726;28;20558;-86
2022/07/09 22:42:32;;;;;;;5.17;3.90;;;;;;;;;;5016096;28;20452;-84
2022/07/09 22:44:59;;;;;;;4.00;3.60;;;;;;;;;;5015858;28;20451;-85
2022/07/09 22:47:26;;;;;;;6.73;3.93;;;;;;;;;;5015707;28;20448;-86
2022/07/09 22:49:53;;;;;;;4.67;3.93;;;;;;;;;;5015905;28;20444;-84
2022/07/09 22:52:20;;;;;;;7.30;3.90;;;;;;;;;;5015831;28;20459;-84
2022/07/09 22:54:47;;;;;;;4.73;4.33;;;;;;;;;;5014607;28;20445;-86
2022/07/09 22:57:15;;;;;;;4.30;3.90;;;16.60;99.90;;;;;;5015922;28;20441;-88
2022/07/09 22:59:44;;;;;;;4.93;4.27;;;;;;;;;;5015655;28;20492;-85
2022/07/09 23:02:11;;;;;;;4.90;4.50;;;;;;;;;;5015797;28;20456;-87
2022/07/09 23:04:38;;;;;;;4.73;4.10;;;;;;;;;;5017833;28;20448;-86
2022/07/09 23:07:05;;;;;;;9.10;3.77;;;;;;;;;;5017236;28;20447;-84
2022/07/09 23:09:31;;;;;;;4.57;4.10;;;;;;;;;;5015275;28;20452;-85
2022/07/09 23:11:59;;;;;;;4.27;3.87;;;;;;;;;;5016182;28;20574;-84
2022/07/09 23:14:27;;;;;;;4.27;3.87;;;16.50;99.90;;;;;;5032932;28;20498;-84
2022/07/09 23:16:54;;;;;;;4.40;3.77;;;;;;;;;;5033544;28;20443;-85
2022/07/09 23:19:21;;;;;;;4.63;4.13;;;;;;;;;;5034737;28;20487;-85
2022/07/09 23:21:48;;;;;;;6.20;4.77;;;;;;;;;;5034730;28;20455;-85
2022/07/09 23:24:15;;;;;;;5.10;4.30;;;;;;;;;;5033664;28;20447;-85
2022/07/09 23:26:42;;;;;;;4.40;4.00;;;;;;;;;;5034347;28;20489;-85
2022/07/09 23:29:09;;;;;;;5.03;4.53;;;;;;;;;;5034324;28;20942;-85
2022/07/09 23:31:37;;;;;;;4.47;4.07;;;16.50;99.90;;;;;;5034705;28;20474;-85
2022/07/09 23:34:04;;;;;;;4.83;4.43;;;;;;;;;;5034664;28;20839;-85
2022/07/09 23:36:32;;;;;;;5.03;4.63;;;;;;;;;;5034712;28;20809;-85
2022/07/09 23:38:59;;;;;;;4.07;3.67;;;;;;;;;;5033512;28;20517;-87
2022/07/09 23:41:26;;;;;;;4.63;4.23;;;;;;;;;;5034546;28;20444;-85
2022/07/09 23:43:53;;;;;;;4.73;4.23;;;;;;;;;;5034564;28;20443;-84
2022/07/09 23:46:20;;;;;;;5.50;4.17;;;;;;;;;;5034612;28;20443;-85
2022/07/09 23:48:48;;;;;;;4.70;4.30;;;16.30;99.90;;;;;;5034398;28;20443;-85
2022/07/09 23:51:15;;;;;;;4.63;4.33;;;;;;;;;;5033997;28;20463;-84
2022/07/09 23:53:42;;;;;;;4.77;4.37;;;;;;;;;;5033177;28;20447;-85
2022/07/09 23:56:09;;;;;;;4.33;4.03;;;;;;;;;;5034258;28;20448;-84
2022/07/09 23:58:36;;;;;;;6.70;4.67;;;;;;;;;;5034303;28;20458;-84
